sensor_id;sensor_type;location;lat;lon;timestamp;P1;durP1;ratioP1;P2;durP2;ratioP2
6725;SDS011;3400;48.506;11.692;2023-03-01T00:01:01;22.17;;;15.23;;
6725;SDS011;3400;48.506;11.692;2023-03-01T00:03:30;23.47;;;14.97;;
6725;SDS011;3400;48.506;11.692;2023-03-01T00:05:58;20.70;;;14.17;;
6725;SDS011;3400;48.506;11.692;2023-03-01T00:08:26;23.00;;;14.80;;
6725;SDS011;3400;48.506;11.692;2023-03-01T00:11:01;23.27;;;14.70;;
6725;SDS011;3400;48.506;11.692;2023-03-01T00:13:28;23.37;;;14.67;;
6725;SDS011;3400;48.506;11.692;2023-03-01T00:15:56;19.40;;;14.37;;
6725;SDS011;3400;48.506;11.692;2023-03-01T00:18:24;21.77;;;14.37;;
6725;SDS011;3400;48.506;11.692;2023-03-01T00:20:54;19.10;;;14.03;;
6725;SDS011;3400;48.506;11.692;2023-03-01T00:23:23;20.50;;;14.77;;
6725;SDS011;3400;48.506;11.692;2023-03-01T00:25:51;22.00;;;15.23;;
6725;SDS011;3400;48.506;11.692;2023-03-01T00:28:19;19.07;;;14.63;;
6725;SDS011;3400;48.506;11.692;2023-03-01T00:30:47;20.87;;;14.27;;
6725;SDS011;3400;48.506;11.692;2023-03-01T00:33:15;18.00;;;14.40;;
6725;SDS011;3400;48.506;11.692;2023-03-01T00:35:42;21.67;;;15.43;;
6725;SDS011;3400;48.506;11.692;2023-03-01T00:38:11;19.20;;;14.17;;
6725;SDS011;3400;48.506;11.692;2023-03-01T00:40:39;20.90;;;15.73;;
6725;SDS011;3400;48.506;11.692;2023-03-01T00:43:07;21.20;;;14.37;;
6725;SDS011;3400;48.506;11.692;2023-03-01T00:45:36;22.03;;;14.80;;
6725;SDS011;3400;48.506;11.692;2023-03-01T00:48:04;19.47;;;14.47;;
6725;SDS011;3400;48.506;11.692;2023-03-01T00:50:33;19.27;;;14.60;;
6725;SDS011;3400;48.506;11.692;2023-03-01T00:53:01;19.07;;;14.67;;
6725;SDS011;3400;48.506;11.692;2023-03-01T00:55:32;18.57;;;14.63;;
6725;SDS011;3400;48.506;11.692;2023-03-01T00:57:59;19.73;;;14.73;;
6725;SDS011;3400;48.506;11.692;2023-03-01T01:00:28;19.03;;;14.67;;
6725;SDS011;3400;48.506;11.692;2023-03-01T01:02:56;21.03;;;15.63;;
6725;SDS011;3400;48.506;11.692;2023-03-01T01:05:23;18.07;;;14.17;;
6725;SDS011;3400;48.506;11.692;2023-03-01T01:07:52;20.07;;;14.87;;
6725;SDS011;3400;48.506;11.692;2023-03-01T01:10:20;18.90;;;14.80;;
6725;SDS011;3400;48.506;11.692;2023-03-01T01:12:49;19.83;;;14.23;;
6725;SDS011;3400;48.506;11.692;2023-03-01T01:15:17;18.63;;;13.87;;
6725;SDS011;3400;48.506;11.692;2023-03-01T01:17:45;21.37;;;14.90;;
6725;SDS011;3400;48.506;11.692;2023-03-01T01:20:13;22.10;;;15.57;;
6725;SDS011;3400;48.506;11.692;2023-03-01T01:22:41;20.43;;;15.37;;
6725;SDS011;3400;48.506;11.692;2023-03-01T01:25:10;19.97;;;15.90;;
6725;SDS011;3400;48.506;11.692;2023-03-01T01:27:38;21.10;;;15.43;;
6725;SDS011;3400;48.506;11.692;2023-03-01T01:30:08;19.23;;;15.30;;
6725;SDS011;3400;48.506;11.692;2023-03-01T01:32:36;20.73;;;16.43;;
6725;SDS011;3400;48.506;11.692;2023-03-01T01:35:04;21.20;;;14.90;;
6725;SDS011;3400;48.506;11.692;2023-03-01T01:37:32;21.10;;;15.50;;
6725;SDS011;3400;48.506;11.692;2023-03-01T01:40:00;21.47;;;15.87;;
6725;SDS011;3400;48.506;11.692;2023-03-01T01:42:29;19.07;;;15.67;;
6725;SDS011;3400;48.506;11.692;2023-03-01T01:47:45;20.77;;;15.23;;
6725;SDS011;3400;48.506;11.692;2023-03-01T01:50:14;22.37;;;15.73;;
6725;SDS011;3400;48.506;11.692;2023-03-01T01:52:44;20.63;;;14.30;;
6725;SDS011;3400;48.506;11.692;2023-03-01T01:55:14;21.57;;;16.00;;
6725;SDS011;3400;48.506;11.692;2023-03-01T01:57:47;20.63;;;15.23;;
6725;SDS011;3400;48.506;11.692;2023-03-01T02:00:17;21.63;;;15.23;;
6725;SDS011;3400;48.506;11.692;2023-03-01T02:02:47;23.23;;;15.07;;
6725;SDS011;3400;48.506;11.692;2023-03-01T02:05:19;21.03;;;15.03;;
6725;SDS011;3400;48.506;11.692;2023-03-01T02:07:49;18.53;;;14.60;;
6725;SDS011;3400;48.506;11.692;2023-03-01T02:10:19;20.13;;;16.13;;
6725;SDS011;3400;48.506;11.692;2023-03-01T02:12:47;22.57;;;15.77;;
6725;SDS011;3400;48.506;11.692;2023-03-01T02:15:15;21.17;;;15.60;;
6725;SDS011;3400;48.506;11.692;2023-03-01T02:17:43;21.43;;;15.17;;
6725;SDS011;3400;48.506;11.692;2023-03-01T02:20:14;20.03;;;14.80;;
6725;SDS011;3400;48.506;11.692;2023-03-01T02:22:44;22.43;;;15.67;;
6725;SDS011;3400;48.506;11.692;2023-03-01T02:25:21;19.77;;;14.97;;
6725;SDS011;3400;48.506;11.692;2023-03-01T02:27:49;21.37;;;16.60;;
6725;SDS011;3400;48.506;11.692;2023-03-01T02:30:21;22.00;;;17.00;;
6725;SDS011;3400;48.506;11.692;2023-03-01T02:32:50;22.93;;;17.10;;
6725;SDS011;3400;48.506;11.692;2023-03-01T02:35:17;23.47;;;17.20;;
6725;SDS011;3400;48.506;11.692;2023-03-01T02:37:46;24.73;;;17.63;;
6725;SDS011;3400;48.506;11.692;2023-03-01T02:40:15;24.27;;;17.67;;
6725;SDS011;3400;48.506;11.692;2023-03-01T02:42:46;23.80;;;17.20;;
6725;SDS011;3400;48.506;11.692;2023-03-01T02:45:15;24.33;;;18.00;;
6725;SDS011;3400;48.506;11.692;2023-03-01T02:47:44;20.57;;;16.47;;
6725;SDS011;3400;48.506;11.692;2023-03-01T02:50:14;22.33;;;16.47;;
6725;SDS011;3400;48.506;11.692;2023-03-01T02:52:46;22.97;;;17.10;;
6725;SDS011;3400;48.506;11.692;2023-03-01T02:55:18;22.73;;;17.10;;
6725;SDS011;3400;48.506;11.692;2023-03-01T02:57:46;22.33;;;15.93;;
6725;SDS011;3400;48.506;11.692;2023-03-01T03:00:17;26.17;;;17.03;;
6725;SDS011;3400;48.506;11.692;2023-03-01T03:02:48;22.17;;;17.63;;
6725;SDS011;3400;48.506;11.692;2023-03-01T03:05:19;20.90;;;15.93;;
6725;SDS011;3400;48.506;11.692;2023-03-01T03:07:50;22.13;;;16.17;;
6725;SDS011;3400;48.506;11.692;2023-03-01T03:10:19;27.40;;;17.60;;
6725;SDS011;3400;48.506;11.692;2023-03-01T03:12:51;24.00;;;17.97;;
6725;SDS011;3400;48.506;11.692;2023-03-01T03:15:20;25.67;;;17.93;;
6725;SDS011;3400;48.506;11.692;2023-03-01T03:17:50;24.43;;;18.33;;
6725;SDS011;3400;48.506;11.692;2023-03-01T03:20:18;21.13;;;17.20;;
6725;SDS011;3400;48.506;11.692;2023-03-01T03:22:47;24.33;;;18.40;;
6725;SDS011;3400;48.506;11.692;2023-03-01T03:25:16;22.00;;;17.77;;
6725;SDS011;3400;48.506;11.692;2023-03-01T03:27:44;28.10;;;18.23;;
6725;SDS011;3400;48.506;11.692;2023-03-01T03:30:13;22.47;;;16.77;;
6725;SDS011;3400;48.506;11.692;2023-03-01T03:32:42;25.00;;;16.63;;
6725;SDS011;3400;48.506;11.692;2023-03-01T03:35:17;24.77;;;18.10;;
6725;SDS011;3400;48.506;11.692;2023-03-01T03:37:46;24.57;;;17.97;;
6725;SDS011;3400;48.506;11.692;2023-03-01T03:40:30;24.10;;;17.97;;
6725;SDS011;3400;48.506;11.692;2023-03-01T03:43:00;25.40;;;18.67;;
6725;SDS011;3400;48.506;11.692;2023-03-01T03:45:27;25.63;;;18.77;;
6725;SDS011;3400;48.506;11.692;2023-03-01T03:47:58;26.57;;;17.87;;
6725;SDS011;3400;48.506;11.692;2023-03-01T03:50:28;28.83;;;19.40;;
6725;SDS011;3400;48.506;11.692;2023-03-01T03:52:56;25.63;;;18.20;;
6725;SDS011;3400;48.506;11.692;2023-03-01T03:55:23;31.17;;;18.73;;
6725;SDS011;3400;48.506;11.692;2023-03-01T03:57:57;25.47;;;18.70;;
6725;SDS011;3400;48.506;11.692;2023-03-01T04:00:27;27.50;;;18.83;;
6725;SDS011;3400;48.506;11.692;2023-03-01T04:02:55;25.13;;;18.20;;
6725;SDS011;3400;48.506;11.692;2023-03-01T04:05:23;25.00;;;18.30;;
6725;SDS011;3400;48.506;11.692;2023-03-01T04:07:53;24.63;;;17.50;;
6725;SDS011;3400;48.506;11.692;2023-03-01T04:10:33;25.70;;;19.23;;
6725;SDS011;3400;48.506;11.692;2023-03-01T04:13:01;24.43;;;17.93;;
6725;SDS011;3400;48.506;11.692;2023-03-01T04:15:29;27.33;;;17.83;;
6725;SDS011;3400;48.506;11.692;2023-03-01T04:17:58;23.90;;;18.27;;
6725;SDS011;3400;48.506;11.692;2023-03-01T04:20:27;26.93;;;19.67;;
6725;SDS011;3400;48.506;11.692;2023-03-01T04:23:01;25.63;;;18.43;;
6725;SDS011;3400;48.506;11.692;2023-03-01T04:25:37;26.17;;;17.00;;
6725;SDS011;3400;48.506;11.692;2023-03-01T04:28:05;25.90;;;19.07;;
6725;SDS011;3400;48.506;11.692;2023-03-01T04:30:32;28.93;;;18.53;;
6725;SDS011;3400;48.506;11.692;2023-03-01T04:33:03;24.53;;;17.47;;
6725;SDS011;3400;48.506;11.692;2023-03-01T04:35:31;23.30;;;17.73;;
6725;SDS011;3400;48.506;11.692;2023-03-01T04:38:01;27.57;;;19.00;;
6725;SDS011;3400;48.506;11.692;2023-03-01T04:40:29;26.30;;;19.93;;
6725;SDS011;3400;48.506;11.692;2023-03-01T04:42:57;24.83;;;18.73;;
6725;SDS011;3400;48.506;11.692;2023-03-01T04:45:25;26.07;;;19.97;;
6725;SDS011;3400;48.506;11.692;2023-03-01T04:47:53;29.93;;;19.07;;
6725;SDS011;3400;48.506;11.692;2023-03-01T04:50:24;33.67;;;19.00;;
6725;SDS011;3400;48.506;11.692;2023-03-01T04:52:52;24.73;;;18.20;;
6725;SDS011;3400;48.506;11.692;2023-03-01T04:55:21;24.33;;;18.97;;
6725;SDS011;3400;48.506;11.692;2023-03-01T04:57:51;27.67;;;18.27;;
6725;SDS011;3400;48.506;11.692;2023-03-01T05:00:19;25.70;;;18.50;;
6725;SDS011;3400;48.506;11.692;2023-03-01T05:02:48;27.23;;;19.07;;
6725;SDS011;3400;48.506;11.692;2023-03-01T05:05:22;30.13;;;19.60;;
6725;SDS011;3400;48.506;11.692;2023-03-01T05:07:52;29.93;;;19.47;;
6725;SDS011;3400;48.506;11.692;2023-03-01T05:10:20;28.73;;;20.93;;
6725;SDS011;3400;48.506;11.692;2023-03-01T05:12:49;29.60;;;19.37;;
6725;SDS011;3400;48.506;11.692;2023-03-01T05:15:17;28.67;;;19.57;;
6725;SDS011;3400;48.506;11.692;2023-03-01T05:17:47;29.13;;;19.87;;
6725;SDS011;3400;48.506;11.692;2023-03-01T05:20:15;27.50;;;20.00;;
6725;SDS011;3400;48.506;11.692;2023-03-01T05:22:43;27.50;;;18.73;;
6725;SDS011;3400;48.506;11.692;2023-03-01T05:25:11;28.23;;;19.83;;
6725;SDS011;3400;48.506;11.692;2023-03-01T05:27:39;31.20;;;19.80;;
6725;SDS011;3400;48.506;11.692;2023-03-01T05:30:10;26.40;;;18.80;;
6725;SDS011;3400;48.506;11.692;2023-03-01T05:32:40;26.70;;;19.50;;
6725;SDS011;3400;48.506;11.692;2023-03-01T05:35:10;28.57;;;20.33;;
6725;SDS011;3400;48.506;11.692;2023-03-01T05:37:40;25.60;;;18.53;;
6725;SDS011;3400;48.506;11.692;2023-03-01T05:40:09;32.30;;;20.00;;
6725;SDS011;3400;48.506;11.692;2023-03-01T05:42:42;25.80;;;19.53;;
6725;SDS011;3400;48.506;11.692;2023-03-01T05:45:12;30.70;;;23.17;;
6725;SDS011;3400;48.506;11.692;2023-03-01T05:47:40;29.83;;;20.13;;
6725;SDS011;3400;48.506;11.692;2023-03-01T05:50:10;28.50;;;19.93;;
6725;SDS011;3400;48.506;11.692;2023-03-01T05:52:39;26.13;;;17.77;;
6725;SDS011;3400;48.506;11.692;2023-03-01T05:55:07;27.07;;;18.63;;
6725;SDS011;3400;48.506;11.692;2023-03-01T05:57:35;32.77;;;19.13;;
6725;SDS011;3400;48.506;11.692;2023-03-01T06:00:03;26.23;;;19.70;;
6725;SDS011;3400;48.506;11.692;2023-03-01T06:02:39;24.53;;;18.40;;
6725;SDS011;3400;48.506;11.692;2023-03-01T06:05:08;26.80;;;19.77;;
6725;SDS011;3400;48.506;11.692;2023-03-01T06:07:36;24.87;;;18.57;;
6725;SDS011;3400;48.506;11.692;2023-03-01T06:10:04;30.37;;;20.27;;
6725;SDS011;3400;48.506;11.692;2023-03-01T06:12:33;30.80;;;19.50;;
6725;SDS011;3400;48.506;11.692;2023-03-01T06:15:01;28.83;;;20.37;;
6725;SDS011;3400;48.506;11.692;2023-03-01T06:17:30;25.53;;;18.53;;
6725;SDS011;3400;48.506;11.692;2023-03-01T06:20:00;27.57;;;19.43;;
6725;SDS011;3400;48.506;11.692;2023-03-01T06:22:27;30.27;;;20.87;;
6725;SDS011;3400;48.506;11.692;2023-03-01T06:24:55;29.67;;;19.70;;
6725;SDS011;3400;48.506;11.692;2023-03-01T06:27:23;28.43;;;18.53;;
6725;SDS011;3400;48.506;11.692;2023-03-01T06:29:51;28.40;;;20.10;;
6725;SDS011;3400;48.506;11.692;2023-03-01T06:32:19;25.03;;;18.57;;
6725;SDS011;3400;48.506;11.692;2023-03-01T06:34:47;24.47;;;18.37;;
6725;SDS011;3400;48.506;11.692;2023-03-01T06:37:16;24.73;;;17.80;;
6725;SDS011;3400;48.506;11.692;2023-03-01T06:39:44;27.30;;;18.30;;
6725;SDS011;3400;48.506;11.692;2023-03-01T06:42:12;30.00;;;19.53;;
6725;SDS011;3400;48.506;11.692;2023-03-01T06:44:39;23.77;;;16.03;;
6725;SDS011;3400;48.506;11.692;2023-03-01T06:47:07;29.03;;;19.33;;
6725;SDS011;3400;48.506;11.692;2023-03-01T06:49:35;24.70;;;16.73;;
6725;SDS011;3400;48.506;11.692;2023-03-01T06:52:03;22.73;;;15.67;;
6725;SDS011;3400;48.506;11.692;2023-03-01T06:54:32;26.07;;;17.30;;
6725;SDS011;3400;48.506;11.692;2023-03-01T06:57:00;24.20;;;16.57;;
6725;SDS011;3400;48.506;11.692;2023-03-01T06:59:28;25.53;;;17.37;;
6725;SDS011;3400;48.506;11.692;2023-03-01T07:01:56;22.70;;;15.83;;
6725;SDS011;3400;48.506;11.692;2023-03-01T07:04:23;26.00;;;16.60;;
6725;SDS011;3400;48.506;11.692;2023-03-01T07:06:54;24.00;;;16.53;;
6725;SDS011;3400;48.506;11.692;2023-03-01T07:09:22;22.70;;;15.47;;
6725;SDS011;3400;48.506;11.692;2023-03-01T07:11:51;24.00;;;15.67;;
6725;SDS011;3400;48.506;11.692;2023-03-01T07:14:19;20.20;;;14.93;;
6725;SDS011;3400;48.506;11.692;2023-03-01T07:16:47;21.33;;;15.20;;
6725;SDS011;3400;48.506;11.692;2023-03-01T07:19:15;19.63;;;14.23;;
6725;SDS011;3400;48.506;11.692;2023-03-01T07:21:43;23.60;;;15.10;;
6725;SDS011;3400;48.506;11.692;2023-03-01T07:24:10;18.80;;;14.33;;
6725;SDS011;3400;48.506;11.692;2023-03-01T07:26:38;19.63;;;14.63;;
6725;SDS011;3400;48.506;11.692;2023-03-01T07:29:09;22.27;;;15.37;;
6725;SDS011;3400;48.506;11.692;2023-03-01T07:31:37;22.73;;;13.80;;
6725;SDS011;3400;48.506;11.692;2023-03-01T07:34:05;19.57;;;14.93;;
6725;SDS011;3400;48.506;11.692;2023-03-01T07:36:32;20.17;;;14.07;;
6725;SDS011;3400;48.506;11.692;2023-03-01T07:39:00;22.20;;;15.03;;
6725;SDS011;3400;48.506;11.692;2023-03-01T07:41:29;21.40;;;14.87;;
6725;SDS011;3400;48.506;11.692;2023-03-01T07:43:57;22.40;;;15.87;;
6725;SDS011;3400;48.506;11.692;2023-03-01T07:46:26;21.17;;;14.70;;
6725;SDS011;3400;48.506;11.692;2023-03-01T07:48:54;20.27;;;14.70;;
6725;SDS011;3400;48.506;11.692;2023-03-01T07:51:23;22.10;;;15.23;;
6725;SDS011;3400;48.506;11.692;2023-03-01T07:53:51;20.10;;;14.53;;
6725;SDS011;3400;48.506;11.692;2023-03-01T07:56:19;19.37;;;14.17;;
6725;SDS011;3400;48.506;11.692;2023-03-01T07:58:47;21.83;;;14.80;;
6725;SDS011;3400;48.506;11.692;2023-03-01T08:01:16;19.47;;;14.40;;
6725;SDS011;3400;48.506;11.692;2023-03-01T08:03:46;21.83;;;14.80;;
6725;SDS011;3400;48.506;11.692;2023-03-01T08:06:14;18.70;;;14.30;;
6725;SDS011;3400;48.506;11.692;2023-03-01T08:08:43;20.77;;;15.33;;
6725;SDS011;3400;48.506;11.692;2023-03-01T08:11:12;20.10;;;14.73;;
6725;SDS011;3400;48.506;11.692;2023-03-01T08:13:40;18.37;;;14.47;;
6725;SDS011;3400;48.506;11.692;2023-03-01T08:16:09;22.33;;;14.90;;
6725;SDS011;3400;48.506;11.692;2023-03-01T08:18:38;19.23;;;14.57;;
6725;SDS011;3400;48.506;11.692;2023-03-01T08:21:08;18.30;;;13.70;;
6725;SDS011;3400;48.506;11.692;2023-03-01T08:23:36;19.97;;;15.03;;
6725;SDS011;3400;48.506;11.692;2023-03-01T08:26:05;19.83;;;14.10;;
6725;SDS011;3400;48.506;11.692;2023-03-01T08:28:33;19.90;;;14.33;;
6725;SDS011;3400;48.506;11.692;2023-03-01T08:31:01;18.10;;;13.97;;
6725;SDS011;3400;48.506;11.692;2023-03-01T08:33:29;21.43;;;14.87;;
6725;SDS011;3400;48.506;11.692;2023-03-01T08:36:03;22.93;;;15.17;;
6725;SDS011;3400;48.506;11.692;2023-03-01T08:38:33;18.23;;;14.73;;
6725;SDS011;3400;48.506;11.692;2023-03-01T08:41:02;19.43;;;13.93;;
6725;SDS011;3400;48.506;11.692;2023-03-01T08:43:30;20.77;;;15.50;;
6725;SDS011;3400;48.506;11.692;2023-03-01T08:45:58;17.83;;;14.73;;
6725;SDS011;3400;48.506;11.692;2023-03-01T08:48:27;19.53;;;14.50;;
6725;SDS011;3400;48.506;11.692;2023-03-01T08:50:55;17.73;;;14.30;;
6725;SDS011;3400;48.506;11.692;2023-03-01T08:53:22;15.50;;;13.43;;
6725;SDS011;3400;48.506;11.692;2023-03-01T08:55:52;18.70;;;14.70;;
6725;SDS011;3400;48.506;11.692;2023-03-01T08:58:19;16.77;;;14.40;;
6725;SDS011;3400;48.506;11.692;2023-03-01T09:00:47;17.20;;;13.77;;
6725;SDS011;3400;48.506;11.692;2023-03-01T09:03:15;20.47;;;14.17;;
6725;SDS011;3400;48.506;11.692;2023-03-01T09:05:43;17.03;;;14.23;;
6725;SDS011;3400;48.506;11.692;2023-03-01T09:08:11;18.80;;;14.17;;
6725;SDS011;3400;48.506;11.692;2023-03-01T09:10:39;17.07;;;14.90;;
6725;SDS011;3400;48.506;11.692;2023-03-01T09:13:08;18.73;;;13.87;;
6725;SDS011;3400;48.506;11.692;2023-03-01T09:15:36;19.40;;;13.83;;
6725;SDS011;3400;48.506;11.692;2023-03-01T09:18:04;14.87;;;13.17;;
6725;SDS011;3400;48.506;11.692;2023-03-01T09:20:32;16.73;;;13.77;;
6725;SDS011;3400;48.506;11.692;2023-03-01T09:23:00;17.60;;;13.67;;
6725;SDS011;3400;48.506;11.692;2023-03-01T09:25:28;18.40;;;14.00;;
6725;SDS011;3400;48.506;11.692;2023-03-01T09:27:56;16.50;;;14.27;;
6725;SDS011;3400;48.506;11.692;2023-03-01T09:30:25;19.00;;;14.30;;
6725;SDS011;3400;48.506;11.692;2023-03-01T09:32:53;16.63;;;13.57;;
6725;SDS011;3400;48.506;11.692;2023-03-01T09:35:21;17.37;;;14.77;;
6725;SDS011;3400;48.506;11.692;2023-03-01T09:37:49;17.87;;;14.03;;
6725;SDS011;3400;48.506;11.692;2023-03-01T09:40:18;15.40;;;12.97;;
6725;SDS011;3400;48.506;11.692;2023-03-01T09:42:49;15.00;;;12.93;;
6725;SDS011;3400;48.506;11.692;2023-03-01T09:45:21;16.53;;;13.40;;
6725;SDS011;3400;48.506;11.692;2023-03-01T09:47:53;18.53;;;13.27;;
6725;SDS011;3400;48.506;11.692;2023-03-01T09:50:21;15.17;;;13.03;;
6725;SDS011;3400;48.506;11.692;2023-03-01T09:52:50;15.83;;;13.27;;
6725;SDS011;3400;48.506;11.692;2023-03-01T09:55:25;17.90;;;13.97;;
6725;SDS011;3400;48.506;11.692;2023-03-01T09:57:54;14.60;;;13.07;;
6725;SDS011;3400;48.506;11.692;2023-03-01T10:00:29;16.13;;;13.20;;
6725;SDS011;3400;48.506;11.692;2023-03-01T10:03:00;15.73;;;13.23;;
6725;SDS011;3400;48.506;11.692;2023-03-01T10:05:41;16.87;;;14.47;;
6725;SDS011;3400;48.506;11.692;2023-03-01T10:08:19;16.13;;;13.50;;
6725;SDS011;3400;48.506;11.692;2023-03-01T10:10:50;15.47;;;13.87;;
6725;SDS011;3400;48.506;11.692;2023-03-01T10:13:19;15.53;;;13.10;;
6725;SDS011;3400;48.506;11.692;2023-03-01T10:15:50;16.87;;;13.57;;
6725;SDS011;3400;48.506;11.692;2023-03-01T10:18:22;16.33;;;13.40;;
6725;SDS011;3400;48.506;11.692;2023-03-01T10:20:52;15.90;;;13.17;;
6725;SDS011;3400;48.506;11.692;2023-03-01T10:23:21;14.73;;;12.97;;
6725;SDS011;3400;48.506;11.692;2023-03-01T10:25:56;17.60;;;12.50;;
6725;SDS011;3400;48.506;11.692;2023-03-01T10:28:30;15.87;;;13.67;;
6725;SDS011;3400;48.506;11.692;2023-03-01T10:30:58;15.53;;;13.93;;
6725;SDS011;3400;48.506;11.692;2023-03-01T10:33:29;15.33;;;13.63;;
6725;SDS011;3400;48.506;11.692;2023-03-01T10:35:58;16.97;;;14.23;;
6725;SDS011;3400;48.506;11.692;2023-03-01T10:38:26;15.60;;;14.00;;
6725;SDS011;3400;48.506;11.692;2023-03-01T10:40:58;16.87;;;13.03;;
6725;SDS011;3400;48.506;11.692;2023-03-01T10:43:43;14.77;;;13.20;;
6725;SDS011;3400;48.506;11.692;2023-03-01T10:46:24;16.13;;;12.77;;
6725;SDS011;3400;48.506;11.692;2023-03-01T10:49:07;14.93;;;12.63;;
6725;SDS011;3400;48.506;11.692;2023-03-01T10:51:35;15.87;;;13.17;;
6725;SDS011;3400;48.506;11.692;2023-03-01T10:54:03;15.57;;;13.97;;
6725;SDS011;3400;48.506;11.692;2023-03-01T10:56:35;14.03;;;12.60;;
6725;SDS011;3400;48.506;11.692;2023-03-01T10:59:19;14.53;;;12.87;;
6725;SDS011;3400;48.506;11.692;2023-03-01T11:01:49;15.00;;;13.33;;
6725;SDS011;3400;48.506;11.692;2023-03-01T11:04:29;14.30;;;12.80;;
6725;SDS011;3400;48.506;11.692;2023-03-01T11:06:58;14.07;;;11.70;;
6725;SDS011;3400;48.506;11.692;2023-03-01T11:09:26;15.53;;;13.13;;
6725;SDS011;3400;48.506;11.692;2023-03-01T11:12:03;15.17;;;13.53;;
6725;SDS011;3400;48.506;11.692;2023-03-01T11:14:33;15.00;;;13.20;;
6725;SDS011;3400;48.506;11.692;2023-03-01T11:17:02;15.17;;;13.53;;
6725;SDS011;3400;48.506;11.692;2023-03-01T11:19:32;18.00;;;13.63;;
6725;SDS011;3400;48.506;11.692;2023-03-01T11:22:02;14.87;;;13.33;;
6725;SDS011;3400;48.506;11.692;2023-03-01T11:24:31;16.67;;;13.03;;
6725;SDS011;3400;48.506;11.692;2023-03-01T11:27:03;15.10;;;13.50;;
6725;SDS011;3400;48.506;11.692;2023-03-01T11:29:34;13.33;;;11.93;;
6725;SDS011;3400;48.506;11.692;2023-03-01T11:32:05;13.30;;;12.00;;
6725;SDS011;3400;48.506;11.692;2023-03-01T11:34:38;15.30;;;13.70;;
6725;SDS011;3400;48.506;11.692;2023-03-01T11:37:10;16.60;;;12.40;;
6725;SDS011;3400;48.506;11.692;2023-03-01T11:39:41;14.23;;;12.70;;
6725;SDS011;3400;48.506;11.692;2023-03-01T11:42:11;16.60;;;13.00;;
6725;SDS011;3400;48.506;11.692;2023-03-01T11:44:40;15.67;;;12.73;;
6725;SDS011;3400;48.506;11.692;2023-03-01T11:47:16;15.27;;;13.03;;
6725;SDS011;3400;48.506;11.692;2023-03-01T11:52:46;14.20;;;12.77;;
6725;SDS011;3400;48.506;11.692;2023-03-01T11:55:19;16.77;;;13.57;;
6725;SDS011;3400;48.506;11.692;2023-03-01T11:57:59;13.87;;;12.47;;
6725;SDS011;3400;48.506;11.692;2023-03-01T12:00:37;15.77;;;12.17;;
6725;SDS011;3400;48.506;11.692;2023-03-01T12:03:22;17.00;;;13.00;;
6725;SDS011;3400;48.506;11.692;2023-03-01T12:08:50;14.57;;;13.17;;
6725;SDS011;3400;48.506;11.692;2023-03-01T12:11:23;14.63;;;12.97;;
6725;SDS011;3400;48.506;11.692;2023-03-01T12:13:59;14.67;;;13.07;;
6725;SDS011;3400;48.506;11.692;2023-03-01T12:16:36;14.07;;;12.73;;
6725;SDS011;3400;48.506;11.692;2023-03-01T12:19:08;14.70;;;12.73;;
6725;SDS011;3400;48.506;11.692;2023-03-01T12:21:43;13.87;;;12.37;;
6725;SDS011;3400;48.506;11.692;2023-03-01T12:24:22;12.90;;;11.60;;
6725;SDS011;3400;48.506;11.692;2023-03-01T12:26:59;13.30;;;11.67;;
6725;SDS011;3400;48.506;11.692;2023-03-01T12:29:34;13.37;;;11.83;;
6725;SDS011;3400;48.506;11.692;2023-03-01T12:35:06;12.77;;;11.47;;
6725;SDS011;3400;48.506;11.692;2023-03-01T12:37:42;15.73;;;12.60;;
6725;SDS011;3400;48.506;11.692;2023-03-01T12:40:20;13.47;;;12.07;;
6725;SDS011;3400;48.506;11.692;2023-03-01T12:42:53;12.73;;;11.43;;
6725;SDS011;3400;48.506;11.692;2023-03-01T12:45:35;13.63;;;12.23;;
6725;SDS011;3400;48.506;11.692;2023-03-01T12:48:11;12.87;;;11.57;;
6725;SDS011;3400;48.506;11.692;2023-03-01T12:50:43;13.70;;;12.00;;
6725;SDS011;3400;48.506;11.692;2023-03-01T12:53:19;13.63;;;12.00;;
6725;SDS011;3400;48.506;11.692;2023-03-01T12:55:48;13.40;;;12.00;;
6725;SDS011;3400;48.506;11.692;2023-03-01T12:58:20;12.90;;;11.63;;
6725;SDS011;3400;48.506;11.692;2023-03-01T13:00:55;14.67;;;12.53;;
6725;SDS011;3400;48.506;11.692;2023-03-01T13:03:29;12.53;;;11.23;;
6725;SDS011;3400;48.506;11.692;2023-03-01T13:06:06;14.67;;;13.20;;
6725;SDS011;3400;48.506;11.692;2023-03-01T13:08:36;13.60;;;12.10;;
6725;SDS011;3400;48.506;11.692;2023-03-01T13:11:11;14.37;;;12.57;;
6725;SDS011;3400;48.506;11.692;2023-03-01T13:13:42;13.20;;;11.80;;
6725;SDS011;3400;48.506;11.692;2023-03-01T13:16:20;13.40;;;11.93;;
6725;SDS011;3400;48.506;11.692;2023-03-01T13:18:48;13.90;;;12.20;;
6725;SDS011;3400;48.506;11.692;2023-03-01T13:21:28;13.73;;;12.27;;
6725;SDS011;3400;48.506;11.692;2023-03-01T13:23:57;14.67;;;12.20;;
6725;SDS011;3400;48.506;11.692;2023-03-01T13:26:26;15.43;;;12.30;;
6725;SDS011;3400;48.506;11.692;2023-03-01T13:28:55;16.47;;;13.47;;
6725;SDS011;3400;48.506;11.692;2023-03-01T13:34:32;14.33;;;12.53;;
6725;SDS011;3400;48.506;11.692;2023-03-01T13:37:09;14.03;;;12.37;;
6725;SDS011;3400;48.506;11.692;2023-03-01T13:39:39;14.97;;;13.13;;
6725;SDS011;3400;48.506;11.692;2023-03-01T13:44:51;15.63;;;13.43;;
6725;SDS011;3400;48.506;11.692;2023-03-01T13:47:19;15.67;;;13.20;;
6725;SDS011;3400;48.506;11.692;2023-03-01T13:49:47;13.53;;;12.17;;
6725;SDS011;3400;48.506;11.692;2023-03-01T13:52:36;14.40;;;12.80;;
6725;SDS011;3400;48.506;11.692;2023-03-01T13:55:06;14.87;;;13.27;;
6725;SDS011;3400;48.506;11.692;2023-03-01T13:57:38;14.13;;;12.37;;
6725;SDS011;3400;48.506;11.692;2023-03-01T14:03:00;14.10;;;11.77;;
6725;SDS011;3400;48.506;11.692;2023-03-01T14:05:29;14.97;;;13.27;;
6725;SDS011;3400;48.506;11.692;2023-03-01T14:07:57;14.77;;;13.27;;
6725;SDS011;3400;48.506;11.692;2023-03-01T14:10:25;13.43;;;11.90;;
6725;SDS011;3400;48.506;11.692;2023-03-01T14:13:00;13.70;;;12.23;;
6725;SDS011;3400;48.506;11.692;2023-03-01T14:15:31;13.87;;;12.37;;
6725;SDS011;3400;48.506;11.692;2023-03-01T14:18:03;14.20;;;12.53;;
6725;SDS011;3400;48.506;11.692;2023-03-01T14:20:38;18.67;;;13.50;;
6725;SDS011;3400;48.506;11.692;2023-03-01T14:23:08;14.00;;;12.27;;
6725;SDS011;3400;48.506;11.692;2023-03-01T14:25:37;14.97;;;12.07;;
6725;SDS011;3400;48.506;11.692;2023-03-01T14:28:12;15.57;;;13.23;;
6725;SDS011;3400;48.506;11.692;2023-03-01T14:30:41;15.33;;;12.27;;
6725;SDS011;3400;48.506;11.692;2023-03-01T14:33:20;13.97;;;12.03;;
6725;SDS011;3400;48.506;11.692;2023-03-01T14:35:55;14.90;;;12.53;;
6725;SDS011;3400;48.506;11.692;2023-03-01T14:38:28;16.73;;;12.80;;
6725;SDS011;3400;48.506;11.692;2023-03-01T14:40:57;16.53;;;13.23;;
6725;SDS011;3400;48.506;11.692;2023-03-01T14:43:25;16.53;;;12.67;;
6725;SDS011;3400;48.506;11.692;2023-03-01T14:45:53;14.30;;;12.33;;
6725;SDS011;3400;48.506;11.692;2023-03-01T14:48:22;13.37;;;11.77;;
6725;SDS011;3400;48.506;11.692;2023-03-01T14:50:50;14.80;;;11.83;;
6725;SDS011;3400;48.506;11.692;2023-03-01T14:53:19;15.37;;;12.10;;
6725;SDS011;3400;48.506;11.692;2023-03-01T14:55:48;14.53;;;12.20;;
6725;SDS011;3400;48.506;11.692;2023-03-01T14:58:18;18.03;;;13.80;;
6725;SDS011;3400;48.506;11.692;2023-03-01T15:00:48;16.13;;;12.43;;
6725;SDS011;3400;48.506;11.692;2023-03-01T15:03:19;15.77;;;11.93;;
6725;SDS011;3400;48.506;11.692;2023-03-01T15:05:49;15.17;;;13.03;;
6725;SDS011;3400;48.506;11.692;2023-03-01T15:08:19;14.90;;;12.03;;
6725;SDS011;3400;48.506;11.692;2023-03-01T15:10:57;16.07;;;12.23;;